sensor_id;sensor_type;location;lat;lon;timestamp;P1;durP1;ratioP1;P2;durP2;ratioP2
13321;SDS011;6730;46.248;6.930;2022-07-15T00:01:15;1.80;;;1.70;;
13321;SDS011;6730;46.248;6.930;2022-07-15T00:03:41;2.15;;;1.88;;
13321;SDS011;6730;46.248;6.930;2022-07-15T00:06:06;3.40;;;1.98;;
13321;SDS011;6730;46.248;6.930;2022-07-15T00:08:32;1.85;;;1.75;;
13321;SDS011;6730;46.248;6.930;2022-07-15T00:10:58;2.22;;;2.03;;
13321;SDS011;6730;46.248;6.930;2022-07-15T00:13:24;1.88;;;1.77;;
13321;SDS011;6730;46.248;6.930;2022-07-15T00:15:50;2.25;;;1.83;;
13321;SDS011;6730;46.248;6.930;2022-07-15T00:18:16;2.25;;;1.88;;
13321;SDS011;6730;46.248;6.930;2022-07-15T00:20:42;2.42;;;1.90;;
13321;SDS011;6730;46.248;6.930;2022-07-15T00:23:08;2.30;;;2.10;;
13321;SDS011;6730;46.248;6.930;2022-07-15T00:25:33;1.92;;;1.83;;
13321;SDS011;6730;46.248;6.930;2022-07-15T00:28:02;3.03;;;2.08;;
13321;SDS011;6730;46.248;6.930;2022-07-15T00:30:34;1.95;;;1.75;;
13321;SDS011;6730;46.248;6.930;2022-07-15T00:33:04;3.03;;;2.00;;
13321;SDS011;6730;46.248;6.930;2022-07-15T00:35:30;1.92;;;1.83;;
13321;SDS011;6730;46.248;6.930;2022-07-15T00:37:57;2.30;;;1.77;;
13321;SDS011;6730;46.248;6.930;2022-07-15T00:40:24;3.00;;;1.80;;
13321;SDS011;6730;46.248;6.930;2022-07-15T00:42:50;1.70;;;1.60;;
13321;SDS011;6730;46.248;6.930;2022-07-15T00:45:19;1.92;;;1.83;;
13321;SDS011;6730;46.248;6.930;2022-07-15T00:47:47;2.28;;;2.03;;
13321;SDS011;6730;46.248;6.930;2022-07-15T00:50:15;2.47;;;1.95;;
13321;SDS011;6730;46.248;6.930;2022-07-15T00:52:48;2.15;;;1.98;;
13321;SDS011;6730;46.248;6.930;2022-07-15T00:55:19;2.00;;;1.90;;
13321;SDS011;6730;46.248;6.930;2022-07-15T00:57:45;2.75;;;1.60;;
13321;SDS011;6730;46.248;6.930;2022-07-15T01:00:14;2.30;;;2.10;;
13321;SDS011;6730;46.248;6.930;2022-07-15T01:02:40;3.25;;;1.88;;
13321;SDS011;6730;46.248;6.930;2022-07-15T01:05:09;2.10;;;1.70;;
13321;SDS011;6730;46.248;6.930;2022-07-15T01:07:36;6.05;;;1.92;;
13321;SDS011;6730;46.248;6.930;2022-07-15T01:10:03;2.20;;;2.00;;
13321;SDS011;6730;46.248;6.930;2022-07-15T01:12:30;2.22;;;2.03;;
13321;SDS011;6730;46.248;6.930;2022-07-15T01:14:56;2.60;;;2.10;;
13321;SDS011;6730;46.248;6.930;2022-07-15T01:17:21;3.60;;;2.03;;
13321;SDS011;6730;46.248;6.930;2022-07-15T01:19:47;2.72;;;1.80;;
13321;SDS011;6730;46.248;6.930;2022-07-15T01:22:13;2.00;;;1.80;;
13321;SDS011;6730;46.248;6.930;2022-07-15T01:24:38;4.45;;;2.08;;
13321;SDS011;6730;46.248;6.930;2022-07-15T01:27:04;1.92;;;1.80;;
13321;SDS011;6730;46.248;6.930;2022-07-15T01:29:30;1.85;;;1.70;;
13321;SDS011;6730;46.248;6.930;2022-07-15T01:31:55;2.67;;;2.00;;
13321;SDS011;6730;46.248;6.930;2022-07-15T01:34:21;3.85;;;2.00;;
13321;SDS011;6730;46.248;6.930;2022-07-15T01:36:47;2.22;;;1.95;;
13321;SDS011;6730;46.248;6.930;2022-07-15T01:39:12;2.65;;;1.98;;
13321;SDS011;6730;46.248;6.930;2022-07-15T01:41:38;2.10;;;1.90;;
13321;SDS011;6730;46.248;6.930;2022-07-15T01:44:04;2.53;;;1.70;;
13321;SDS011;6730;46.248;6.930;2022-07-15T01:46:30;4.70;;;2.00;;
13321;SDS011;6730;46.248;6.930;2022-07-15T01:48:56;2.08;;;1.90;;
13321;SDS011;6730;46.248;6.930;2022-07-15T01:51:41;3.15;;;1.98;;
13321;SDS011;6730;46.248;6.930;2022-07-15T01:54:07;2.95;;;2.03;;
13321;SDS011;6730;46.248;6.930;2022-07-15T01:56:32;2.55;;;2.20;;
13321;SDS011;6730;46.248;6.930;2022-07-15T01:59:01;3.70;;;2.28;;
13321;SDS011;6730;46.248;6.930;2022-07-15T02:01:27;2.55;;;1.80;;
13321;SDS011;6730;46.248;6.930;2022-07-15T02:03:53;2.92;;;1.90;;
13321;SDS011;6730;46.248;6.930;2022-07-15T02:06:18;2.22;;;1.98;;
13321;SDS011;6730;46.248;6.930;2022-07-15T02:08:44;2.55;;;1.90;;
13321;SDS011;6730;46.248;6.930;2022-07-15T02:11:10;1.70;;;1.60;;
13321;SDS011;6730;46.248;6.930;2022-07-15T02:13:36;2.05;;;1.95;;
13321;SDS011;6730;46.248;6.930;2022-07-15T02:16:01;2.20;;;2.00;;
13321;SDS011;6730;46.248;6.930;2022-07-15T02:18:28;2.28;;;1.77;;
13321;SDS011;6730;46.248;6.930;2022-07-15T02:20:53;2.00;;;1.85;;
13321;SDS011;6730;46.248;6.930;2022-07-15T02:23:19;2.40;;;2.10;;
13321;SDS011;6730;46.248;6.930;2022-07-15T02:25:45;2.65;;;1.80;;
13321;SDS011;6730;46.248;6.930;2022-07-15T02:28:10;2.25;;;1.98;;
13321;SDS011;6730;46.248;6.930;2022-07-15T02:30:37;2.35;;;2.15;;
13321;SDS011;6730;46.248;6.930;2022-07-15T02:33:05;2.15;;;1.88;;
13321;SDS011;6730;46.248;6.930;2022-07-15T02:35:32;2.40;;;2.20;;
13321;SDS011;6730;46.248;6.930;2022-07-15T02:37:58;3.10;;;1.98;;
13321;SDS011;6730;46.248;6.930;2022-07-15T02:40:25;2.63;;;2.05;;
13321;SDS011;6730;46.248;6.930;2022-07-15T02:42:53;1.90;;;1.80;;
13321;SDS011;6730;46.248;6.930;2022-07-15T02:45:20;2.40;;;2.20;;
13321;SDS011;6730;46.248;6.930;2022-07-15T02:47:48;1.90;;;1.80;;
13321;SDS011;6730;46.248;6.930;2022-07-15T02:50:14;1.85;;;1.75;;
13321;SDS011;6730;46.248;6.930;2022-07-15T02:52:41;2.00;;;1.90;;
13321;SDS011;6730;46.248;6.930;2022-07-15T02:55:08;2.47;;;2.00;;
13321;SDS011;6730;46.248;6.930;2022-07-15T02:57:35;4.63;;;2.20;;
13321;SDS011;6730;46.248;6.930;2022-07-15T03:00:00;1.98;;;1.77;;
13321;SDS011;6730;46.248;6.930;2022-07-15T03:02:27;4.35;;;1.98;;
13321;SDS011;6730;46.248;6.930;2022-07-15T03:04:53;2.17;;;2.00;;
13321;SDS011;6730;46.248;6.930;2022-07-15T03:07:18;2.40;;;2.20;;
13321;SDS011;6730;46.248;6.930;2022-07-15T03:09:45;3.33;;;2.17;;
13321;SDS011;6730;46.248;6.930;2022-07-15T03:12:10;2.40;;;2.00;;
13321;SDS011;6730;46.248;6.930;2022-07-15T03:14:37;2.22;;;2.03;;
13321;SDS011;6730;46.248;6.930;2022-07-15T03:17:03;2.40;;;2.20;;
13321;SDS011;6730;46.248;6.930;2022-07-15T03:19:28;2.30;;;2.10;;
13321;SDS011;6730;46.248;6.930;2022-07-15T03:21:54;2.45;;;2.10;;
13321;SDS011;6730;46.248;6.930;2022-07-15T03:24:20;4.53;;;2.20;;
13321;SDS011;6730;46.248;6.930;2022-07-15T03:26:46;2.60;;;1.70;;
13321;SDS011;6730;46.248;6.930;2022-07-15T03:29:12;2.20;;;2.00;;
13321;SDS011;6730;46.248;6.930;2022-07-15T03:31:44;2.75;;;1.90;;
13321;SDS011;6730;46.248;6.930;2022-07-15T03:34:10;2.38;;;2.10;;
13321;SDS011;6730;46.248;6.930;2022-07-15T03:36:39;1.95;;;1.85;;
13321;SDS011;6730;46.248;6.930;2022-07-15T03:39:05;2.00;;;1.80;;
13321;SDS011;6730;46.248;6.930;2022-07-15T03:41:31;2.10;;;2.00;;
13321;SDS011;6730;46.248;6.930;2022-07-15T03:43:58;1.90;;;1.80;;
13321;SDS011;6730;46.248;6.930;2022-07-15T03:46:25;2.63;;;1.88;;
13321;SDS011;6730;46.248;6.930;2022-07-15T03:48:51;2.00;;;1.90;;
13321;SDS011;6730;46.248;6.930;2022-07-15T03:51:17;2.30;;;2.10;;
13321;SDS011;6730;46.248;6.930;2022-07-15T03:53:42;1.98;;;1.83;;
13321;SDS011;6730;46.248;6.930;2022-07-15T03:56:08;2.15;;;1.90;;
13321;SDS011;6730;46.248;6.930;2022-07-15T03:58:34;2.20;;;2.00;;
13321;SDS011;6730;46.248;6.930;2022-07-15T04:00:59;2.28;;;2.08;;
13321;SDS011;6730;46.248;6.930;2022-07-15T04:03:25;2.17;;;2.00;;
13321;SDS011;6730;46.248;6.930;2022-07-15T04:05:52;2.03;;;1.83;;
13321;SDS011;6730;46.248;6.930;2022-07-15T04:08:18;1.95;;;1.80;;
13321;SDS011;6730;46.248;6.930;2022-07-15T04:10:43;2.25;;;2.05;;
13321;SDS011;6730;46.248;6.930;2022-07-15T04:13:09;2.15;;;2.00;;
13321;SDS011;6730;46.248;6.930;2022-07-15T04:15:35;1.98;;;1.83;;
13321;SDS011;6730;46.248;6.930;2022-07-15T04:18:01;2.10;;;1.95;;
13321;SDS011;6730;46.248;6.930;2022-07-15T04:20:26;2.22;;;1.77;;
13321;SDS011;6730;46.248;6.930;2022-07-15T04:22:52;1.80;;;1.70;;
13321;SDS011;6730;46.248;6.930;2022-07-15T04:25:19;3.08;;;1.75;;
13321;SDS011;6730;46.248;6.930;2022-07-15T04:27:46;3.28;;;2.00;;
13321;SDS011;6730;46.248;6.930;2022-07-15T04:30:13;2.25;;;2.00;;
13321;SDS011;6730;46.248;6.930;2022-07-15T04:32:39;2.17;;;1.98;;
13321;SDS011;6730;46.248;6.930;2022-07-15T04:35:07;2.00;;;1.90;;
13321;SDS011;6730;46.248;6.930;2022-07-15T04:37:33;3.08;;;1.98;;
13321;SDS011;6730;46.248;6.930;2022-07-15T04:39:58;1.90;;;1.65;;
13321;SDS011;6730;46.248;6.930;2022-07-15T04:42:24;1.80;;;1.70;;
13321;SDS011;6730;46.248;6.930;2022-07-15T04:44:50;3.20;;;2.00;;
13321;SDS011;6730;46.248;6.930;2022-07-15T04:47:15;2.38;;;2.17;;
13321;SDS011;6730;46.248;6.930;2022-07-15T04:49:41;2.80;;;1.70;;
13321;SDS011;6730;46.248;6.930;2022-07-15T04:52:26;1.88;;;1.70;;
13321;SDS011;6730;46.248;6.930;2022-07-15T04:54:55;1.95;;;1.85;;
13321;SDS011;6730;46.248;6.930;2022-07-15T04:57:20;2.33;;;2.17;;
13321;SDS011;6730;46.248;6.930;2022-07-15T04:59:46;3.40;;;1.83;;
13321;SDS011;6730;46.248;6.930;2022-07-15T05:02:12;2.38;;;2.17;;
13321;SDS011;6730;46.248;6.930;2022-07-15T05:04:38;2.22;;;2.03;;
13321;SDS011;6730;46.248;6.930;2022-07-15T05:07:04;2.35;;;1.90;;
13321;SDS011;6730;46.248;6.930;2022-07-15T05:09:30;2.22;;;1.95;;
13321;SDS011;6730;46.248;6.930;2022-07-15T05:11:56;3.17;;;2.22;;
13321;SDS011;6730;46.248;6.930;2022-07-15T05:14:23;2.50;;;1.90;;
13321;SDS011;6730;46.248;6.930;2022-07-15T05:16:48;2.70;;;2.50;;
13321;SDS011;6730;46.248;6.930;2022-07-15T05:19:14;3.00;;;2.00;;
13321;SDS011;6730;46.248;6.930;2022-07-15T05:21:40;3.22;;;2.30;;
13321;SDS011;6730;46.248;6.930;2022-07-15T05:24:06;4.80;;;2.17;;
13321;SDS011;6730;46.248;6.930;2022-07-15T05:26:31;2.88;;;2.30;;
13321;SDS011;6730;46.248;6.930;2022-07-15T05:28:57;2.30;;;2.10;;
13321;SDS011;6730;46.248;6.930;2022-07-15T05:31:24;3.10;;;2.15;;
13321;SDS011;6730;46.248;6.930;2022-07-15T05:33:49;3.05;;;2.28;;
13321;SDS011;6730;46.248;6.930;2022-07-15T05:36:17;2.45;;;2.25;;
13321;SDS011;6730;46.248;6.930;2022-07-15T05:38:43;4.32;;;2.20;;
13321;SDS011;6730;46.248;6.930;2022-07-15T05:41:09;6.30;;;2.20;;
13321;SDS011;6730;46.248;6.930;2022-07-15T05:43:35;2.97;;;2.10;;
13321;SDS011;6730;46.248;6.930;2022-07-15T05:46:02;2.50;;;2.30;;
13321;SDS011;6730;46.248;6.930;2022-07-15T05:48:29;2.83;;;2.17;;
13321;SDS011;6730;46.248;6.930;2022-07-15T05:50:55;2.35;;;2.15;;
13321;SDS011;6730;46.248;6.930;2022-07-15T05:53:21;2.53;;;2.33;;
13321;SDS011;6730;46.248;6.930;2022-07-15T05:55:47;3.97;;;2.70;;
13321;SDS011;6730;46.248;6.930;2022-07-15T05:58:13;5.72;;;3.00;;
13321;SDS011;6730;46.248;6.930;2022-07-15T06:00:39;5.88;;;2.83;;
13321;SDS011;6730;46.248;6.930;2022-07-15T06:03:05;2.65;;;2.40;;
13321;SDS011;6730;46.248;6.930;2022-07-15T06:05:31;2.63;;;2.42;;
13321;SDS011;6730;46.248;6.930;2022-07-15T06:07:57;2.75;;;2.55;;
13321;SDS011;6730;46.248;6.930;2022-07-15T06:10:23;2.95;;;2.58;;
13321;SDS011;6730;46.248;6.930;2022-07-15T06:12:49;2.40;;;2.20;;
13321;SDS011;6730;46.248;6.930;2022-07-15T06:15:15;2.95;;;2.67;;
13321;SDS011;6730;46.248;6.930;2022-07-15T06:17:40;3.08;;;2.58;;
13321;SDS011;6730;46.248;6.930;2022-07-15T06:20:07;5.35;;;2.67;;
13321;SDS011;6730;46.248;6.930;2022-07-15T06:22:33;2.53;;;2.20;;
13321;SDS011;6730;46.248;6.930;2022-07-15T06:24:59;2.67;;;2.47;;
13321;SDS011;6730;46.248;6.930;2022-07-15T06:27:25;2.90;;;2.30;;
13321;SDS011;6730;46.248;6.930;2022-07-15T06:29:51;2.83;;;2.58;;
13321;SDS011;6730;46.248;6.930;2022-07-15T06:32:17;2.47;;;2.30;;
13321;SDS011;6730;46.248;6.930;2022-07-15T06:34:44;3.05;;;2.60;;
13321;SDS011;6730;46.248;6.930;2022-07-15T06:37:10;3.08;;;2.45;;
13321;SDS011;6730;46.248;6.930;2022-07-15T06:39:36;3.22;;;2.83;;
13321;SDS011;6730;46.248;6.930;2022-07-15T06:42:01;3.35;;;2.40;;
13321;SDS011;6730;46.248;6.930;2022-07-15T06:44:28;4.65;;;2.45;;
13321;SDS011;6730;46.248;6.930;2022-07-15T06:46:54;3.03;;;2.55;;
13321;SDS011;6730;46.248;6.930;2022-07-15T06:49:21;3.47;;;2.50;;
13321;SDS011;6730;46.248;6.930;2022-07-15T06:51:47;2.75;;;2.55;;
13321;SDS011;6730;46.248;6.930;2022-07-15T06:54:12;4.10;;;2.70;;
13321;SDS011;6730;46.248;6.930;2022-07-15T06:56:38;4.88;;;2.63;;
13321;SDS011;6730;46.248;6.930;2022-07-15T06:59:04;3.60;;;2.58;;
13321;SDS011;6730;46.248;6.930;2022-07-15T07:01:30;5.13;;;3.10;;
13321;SDS011;6730;46.248;6.930;2022-07-15T07:03:56;3.40;;;2.67;;
13321;SDS011;6730;46.248;6.930;2022-07-15T07:06:22;2.80;;;2.35;;
13321;SDS011;6730;46.248;6.930;2022-07-15T07:08:48;3.33;;;2.47;;
13321;SDS011;6730;46.248;6.930;2022-07-15T07:11:15;2.92;;;2.60;;
13321;SDS011;6730;46.248;6.930;2022-07-15T07:13:42;4.03;;;2.95;;
13321;SDS011;6730;46.248;6.930;2022-07-15T07:16:08;2.83;;;2.63;;
13321;SDS011;6730;46.248;6.930;2022-07-15T07:18:33;3.15;;;2.83;;
13321;SDS011;6730;46.248;6.930;2022-07-15T07:20:59;3.05;;;2.75;;
13321;SDS011;6730;46.248;6.930;2022-07-15T07:23:26;5.15;;;3.10;;
13321;SDS011;6730;46.248;6.930;2022-07-15T07:25:52;4.47;;;2.97;;
13321;SDS011;6730;46.248;6.930;2022-07-15T07:28:19;4.53;;;3.15;;
13321;SDS011;6730;46.248;6.930;2022-07-15T07:30:45;5.75;;;2.70;;
13321;SDS011;6730;46.248;6.930;2022-07-15T07:33:11;3.47;;;2.80;;
13321;SDS011;6730;46.248;6.930;2022-07-15T07:35:37;2.95;;;2.65;;
13321;SDS011;6730;46.248;6.930;2022-07-15T07:38:04;3.25;;;2.95;;
13321;SDS011;6730;46.248;6.930;2022-07-15T07:40:29;7.65;;;3.10;;
13321;SDS011;6730;46.248;6.930;2022-07-15T07:42:55;3.88;;;3.05;;
13321;SDS011;6730;46.248;6.930;2022-07-15T07:45:24;5.10;;;2.95;;
13321;SDS011;6730;46.248;6.930;2022-07-15T07:47:54;2.85;;;2.65;;
13321;SDS011;6730;46.248;6.930;2022-07-15T07:50:23;3.50;;;3.05;;
13321;SDS011;6730;46.248;6.930;2022-07-15T07:52:48;2.95;;;2.75;;
13321;SDS011;6730;46.248;6.930;2022-07-15T07:55:14;3.25;;;2.95;;
13321;SDS011;6730;46.248;6.930;2022-07-15T07:57:50;3.53;;;3.22;;
13321;SDS011;6730;46.248;6.930;2022-07-15T08:00:18;3.08;;;2.65;;
13321;SDS011;6730;46.248;6.930;2022-07-15T08:02:44;3.60;;;3.30;;
13321;SDS011;6730;46.248;6.930;2022-07-15T08:05:12;3.10;;;2.80;;
13321;SDS011;6730;46.248;6.930;2022-07-15T08:07:38;3.55;;;3.22;;
13321;SDS011;6730;46.248;6.930;2022-07-15T08:10:04;3.40;;;2.72;;
13321;SDS011;6730;46.248;6.930;2022-07-15T08:12:31;5.00;;;2.90;;
13321;SDS011;6730;46.248;6.930;2022-07-15T08:14:57;3.30;;;3.10;;
13321;SDS011;6730;46.248;6.930;2022-07-15T08:17:22;3.53;;;2.90;;
13321;SDS011;6730;46.248;6.930;2022-07-15T08:19:48;6.00;;;3.40;;
13321;SDS011;6730;46.248;6.930;2022-07-15T08:22:14;4.13;;;3.70;;
13321;SDS011;6730;46.248;6.930;2022-07-15T08:24:40;4.95;;;3.30;;
13321;SDS011;6730;46.248;6.930;2022-07-15T08:27:06;3.80;;;3.10;;
13321;SDS011;6730;46.248;6.930;2022-07-15T08:29:32;3.55;;;3.25;;
13321;SDS011;6730;46.248;6.930;2022-07-15T08:31:57;3.53;;;3.22;;
13321;SDS011;6730;46.248;6.930;2022-07-15T08:34:23;3.40;;;3.10;;
13321;SDS011;6730;46.248;6.930;2022-07-15T08:36:49;3.10;;;2.90;;
13321;SDS011;6730;46.248;6.930;2022-07-15T08:39:14;3.63;;;3.00;;
13321;SDS011;6730;46.248;6.930;2022-07-15T08:41:40;6.03;;;3.30;;
13321;SDS011;6730;46.248;6.930;2022-07-15T08:44:06;3.10;;;2.80;;
13321;SDS011;6730;46.248;6.930;2022-07-15T08:46:33;3.85;;;2.80;;
13321;SDS011;6730;46.248;6.930;2022-07-15T08:49:07;8.18;;;2.95;;
13321;SDS011;6730;46.248;6.930;2022-07-15T08:51:37;3.00;;;2.80;;
13321;SDS011;6730;46.248;6.930;2022-07-15T08:54:08;2.90;;;2.53;;
13321;SDS011;6730;46.248;6.930;2022-07-15T08:56:34;14.57;;;3.10;;
13321;SDS011;6730;46.248;6.930;2022-07-15T08:59:01;4.43;;;2.65;;
13321;SDS011;6730;46.248;6.930;2022-07-15T09:01:28;6.00;;;2.65;;
13321;SDS011;6730;46.248;6.930;2022-07-15T09:03:55;5.40;;;3.05;;
13321;SDS011;6730;46.248;6.930;2022-07-15T09:06:37;3.50;;;3.03;;
13321;SDS011;6730;46.248;6.930;2022-07-15T09:11:53;4.40;;;2.63;;
13321;SDS011;6730;46.248;6.930;2022-07-15T09:14:23;3.63;;;2.80;;
13321;SDS011;6730;46.248;6.930;2022-07-15T09:17:04;3.97;;;2.92;;
13321;SDS011;6730;46.248;6.930;2022-07-15T09:22:31;4.03;;;2.92;;
13321;SDS011;6730;46.248;6.930;2022-07-15T09:25:23;3.75;;;2.97;;
13321;SDS011;6730;46.248;6.930;2022-07-15T09:27:49;2.92;;;2.72;;
13321;SDS011;6730;46.248;6.930;2022-07-15T09:30:17;3.60;;;2.92;;
13321;SDS011;6730;46.248;6.930;2022-07-15T09:33:06;6.47;;;2.90;;
13321;SDS011;6730;46.248;6.930;2022-07-15T09:35:57;4.05;;;2.80;;
13321;SDS011;6730;46.248;6.930;2022-07-15T09:41:13;5.60;;;2.88;;
13321;SDS011;6730;46.248;6.930;2022-07-15T09:43:52;4.22;;;3.00;;
13321;SDS011;6730;46.248;6.930;2022-07-15T09:49:39;3.05;;;2.75;;
13321;SDS011;6730;46.248;6.930;2022-07-15T09:52:05;4.03;;;2.83;;
13321;SDS011;6730;46.248;6.930;2022-07-15T09:54:36;3.15;;;2.80;;
13321;SDS011;6730;46.248;6.930;2022-07-15T09:57:04;5.75;;;2.83;;
13321;SDS011;6730;46.248;6.930;2022-07-15T09:59:32;4.35;;;2.95;;
13321;SDS011;6730;46.248;6.930;2022-07-15T10:01:58;3.13;;;2.83;;
13321;SDS011;6730;46.248;6.930;2022-07-15T10:04:25;3.35;;;2.70;;
13321;SDS011;6730;46.248;6.930;2022-07-15T10:06:53;5.35;;;3.15;;
13321;SDS011;6730;46.248;6.930;2022-07-15T10:09:23;3.30;;;2.97;;
13321;SDS011;6730;46.248;6.930;2022-07-15T10:11:54;4.30;;;3.08;;
13321;SDS011;6730;46.248;6.930;2022-07-15T10:23:15;3.13;;;2.83;;
13321;SDS011;6730;46.248;6.930;2022-07-15T10:28:12;4.03;;;2.70;;
13321;SDS011;6730;46.248;6.930;2022-07-15T10:30:40;5.32;;;2.75;;
13321;SDS011;6730;46.248;6.930;2022-07-15T10:33:08;3.22;;;2.65;;
13321;SDS011;6730;46.248;6.930;2022-07-15T10:38:24;5.13;;;2.85;;
13321;SDS011;6730;46.248;6.930;2022-07-15T10:41:04;2.83;;;2.50;;
13321;SDS011;6730;46.248;6.930;2022-07-15T10:43:54;6.07;;;3.00;;
13321;SDS011;6730;46.248;6.930;2022-07-15T10:46:21;7.38;;;2.88;;
13321;SDS011;6730;46.248;6.930;2022-07-15T10:48:53;5.80;;;2.72;;
13321;SDS011;6730;46.248;6.930;2022-07-15T10:54:06;3.47;;;2.60;;
13321;SDS011;6730;46.248;6.930;2022-07-15T10:56:42;3.45;;;2.60;;
13321;SDS011;6730;46.248;6.930;2022-07-15T11:01:48;4.97;;;2.90;;
13321;SDS011;6730;46.248;6.930;2022-07-15T11:04:26;3.20;;;2.90;;
13321;SDS011;6730;46.248;6.930;2022-07-15T11:12:18;3.40;;;2.83;;
13321;SDS011;6730;46.248;6.930;2022-07-15T11:15:14;2.90;;;2.70;;
13321;SDS011;6730;46.248;6.930;2022-07-15T11:17:44;2.83;;;2.60;;
13321;SDS011;6730;46.248;6.930;2022-07-15T11:23:06;4.38;;;2.80;;
13321;SDS011;6730;46.248;6.930;2022-07-15T11:25:34;3.58;;;3.17;;
13321;SDS011;6730;46.248;6.930;2022-07-15T11:33:07;4.95;;;2.83;;
13321;SDS011;6730;46.248;6.930;2022-07-15T11:35:47;4.13;;;2.50;;
13321;SDS011;6730;46.248;6.930;2022-07-15T11:38:24;3.85;;;2.60;;
13321;SDS011;6730;46.248;6.930;2022-07-15T11:40:56;6.63;;;2.53;;
13321;SDS011;6730;46.248;6.930;2022-07-15T11:43:43;3.15;;;2.25;;
13321;SDS011;6730;46.248;6.930;2022-07-15T11:46:28;2.60;;;2.40;;
13321;SDS011;6730;46.248;6.930;2022-07-15T11:48:55;4.90;;;2.47;;
13321;SDS011;6730;46.248;6.930;2022-07-15T11:51:28;4.05;;;2.10;;
13321;SDS011;6730;46.248;6.930;2022-07-15T11:53:55;2.10;;;1.90;;
13321;SDS011;6730;46.248;6.930;2022-07-15T11:56:23;3.58;;;2.10;;
13321;SDS011;6730;46.248;6.930;2022-07-15T11:58:53;2.10;;;2.00;;
13321;SDS011;6730;46.248;6.930;2022-07-15T12:01:21;2.55;;;2.35;;
13321;SDS011;6730;46.248;6.930;2022-07-15T12:03:50;3.30;;;3.00;;
13321;SDS011;6730;46.248;6.930;2022-07-15T12:06:18;2.35;;;2.15;;
13321;SDS011;6730;46.248;6.930;2022-07-15T12:08:55;3.78;;;2.33;;
13321;SDS011;6730;46.248;6.930;2022-07-15T12:14:22;5.72;;;2.10;;
13321;SDS011;6730;46.248;6.930;2022-07-15T12:16:49;2.85;;;2.30;;
13321;SDS011;6730;46.248;6.930;2022-07-15T12:21:54;2.55;;;2.35;;
13321;SDS011;6730;46.248;6.930;2022-07-15T12:24:22;2.65;;;2.20;;
13321;SDS011;6730;46.248;6.930;2022-07-15T12:27:00;6.22;;;2.40;;
13321;SDS011;6730;46.248;6.930;2022-07-15T12:29:27;2.80;;;2.30;;
13321;SDS011;6730;46.248;6.930;2022-07-15T12:31:58;2.22;;;2.03;;
13321;SDS011;6730;46.248;6.930;2022-07-15T12:37:16;6.10;;;2.75;;
13321;SDS011;6730;46.248;6.930;2022-07-15T12:42:32;2.60;;;2.40;;
13321;SDS011;6730;46.248;6.930;2022-07-15T12:45:20;4.10;;;2.47;;
13321;SDS011;6730;46.248;6.930;2022-07-15T12:50:36;2.90;;;2.55;;
13321;SDS011;6730;46.248;6.930;2022-07-15T12:53:18;4.22;;;2.30;;
13321;SDS011;6730;46.248;6.930;2022-07-15T12:55:46;4.30;;;2.40;;
13321;SDS011;6730;46.248;6.930;2022-07-15T12:58:14;3.95;;;2.40;;
13321;SDS011;6730;46.248;6.930;2022-07-15T13:00:41;4.53;;;2.38;;
13321;SDS011;6730;46.248;6.930;2022-07-15T13:03:09;2.60;;;2.40;;
13321;SDS011;6730;46.248;6.930;2022-07-15T13:05:36;3.88;;;2.47;;
13321;SDS011;6730;46.248;6.930;2022-07-15T13:08:11;5.88;;;2.30;;
13321;SDS011;6730;46.248;6.930;2022-07-15T13:10:48;3.42;;;2.50;;
13321;SDS011;6730;46.248;6.930;2022-07-15T13:13:16;2.33;;;2.20;;
13321;SDS011;6730;46.248;6.930;2022-07-15T13:15:44;3.25;;;2.47;;
13321;SDS011;6730;46.248;6.930;2022-07-15T13:18:11;2.53;;;2.30;;
13321;SDS011;6730;46.248;6.930;2022-07-15T13:20:38;2.30;;;2.10;;
13321;SDS011;6730;46.248;6.930;2022-07-15T13:23:04;3.72;;;2.60;;
13321;SDS011;6730;46.248;6.930;2022-07-15T13:25:31;2.72;;;2.53;;
13321;SDS011;6730;46.248;6.930;2022-07-15T13:28:00;3.25;;;2.60;;
13321;SDS011;6730;46.248;6.930;2022-07-15T13:30:26;2.35;;;2.15;;
13321;SDS011;6730;46.248;6.930;2022-07-15T13:32:52;2.63;;;2.42;;
13321;SDS011;6730;46.248;6.930;2022-07-15T13:35:18;3.10;;;2.38;;
13321;SDS011;6730;46.248;6.930;2022-07-15T13:37:43;3.33;;;2.22;;
13321;SDS011;6730;46.248;6.930;2022-07-15T13:40:10;3.80;;;2.50;;
13321;SDS011;6730;46.248;6.930;2022-07-15T13:42:37;3.33;;;2.28;;
13321;SDS011;6730;46.248;6.930;2022-07-15T13:45:04;2.45;;;2.25;;
13321;SDS011;6730;46.248;6.930;2022-07-15T13:47:30;3.38;;;2.47;;
13321;SDS011;6730;46.248;6.930;2022-07-15T13:49:57;4.72;;;2.45;;
13321;SDS011;6730;46.248;6.930;2022-07-15T13:52:43;2.50;;;2.30;;
13321;SDS011;6730;46.248;6.930;2022-07-15T13:55:10;4.13;;;2.40;;
13321;SDS011;6730;46.248;6.930;2022-07-15T13:57:37;2.88;;;2.38;;
13321;SDS011;6730;46.248;6.930;2022-07-15T14:00:07;2.17;;;1.95;;
13321;SDS011;6730;46.248;6.930;2022-07-15T14:02:37;5.70;;;2.58;;
13321;SDS011;6730;46.248;6.930;2022-07-15T14:05:03;2.85;;;2.40;;
13321;SDS011;6730;46.248;6.930;2022-07-15T14:07:31;3.47;;;2.33;;
13321;SDS011;6730;46.248;6.930;2022-07-15T14:09:57;2.53;;;2.33;;
13321;SDS011;6730;46.248;6.930;2022-07-15T14:12:22;3.13;;;2.30;;
13321;SDS011;6730;46.248;6.930;2022-07-15T14:14:48;3.05;;;2.50;;
13321;SDS011;6730;46.248;6.930;2022-07-15T14:17:14;4.40;;;2.30;;
13321;SDS011;6730;46.248;6.930;2022-07-15T14:19:39;3.83;;;2.78;;
13321;SDS011;6730;46.248;6.930;2022-07-15T14:22:05;3.00;;;2.67;;
13321;SDS011;6730;46.248;6.930;2022-07-15T14:24:31;3.25;;;2.55;;
13321;SDS011;6730;46.248;6.930;2022-07-15T14:26:56;3.58;;;2.10;;
13321;SDS011;6730;46.248;6.930;2022-07-15T14:29:22;3.17;;;2.33;;
13321;SDS011;6730;46.248;6.930;2022-07-15T14:31:48;7.30;;;2.65;;
13321;SDS011;6730;46.248;6.930;2022-07-15T14:34:14;2.90;;;2.33;;
13321;SDS011;6730;46.248;6.930;2022-07-15T14:36:40;3.42;;;2.72;;
13321;SDS011;6730;46.248;6.930;2022-07-15T14:39:06;4.85;;;2.58;;
13321;SDS011;6730;46.248;6.930;2022-07-15T14:41:32;6.13;;;2.40;;
13321;SDS011;6730;46.248;6.930;2022-07-15T14:43:58;8.48;;;2.88;;
13321;SDS011;6730;46.248;6.930;2022-07-15T14:46:24;2.90;;;2.38;;
13321;SDS011;6730;46.248;6.930;2022-07-15T14:48:50;2.70;;;2.50;;
13321;SDS011;6730;46.248;6.930;2022-07-15T14:51:15;4.75;;;2.80;;
13321;SDS011;6730;46.248;6.930;2022-07-15T14:53:41;3.95;;;2.70;;
13321;SDS011;6730;46.248;6.930;2022-07-15T14:56:07;3.05;;;2.85;;
13321;SDS011;6730;46.248;6.930;2022-07-15T14:58:33;4.18;;;2.40;;
13321;SDS011;6730;46.248;6.930;2022-07-15T15:00:58;4.50;;;2.80;;
13321;SDS011;6730;46.248;6.930;2022-07-15T15:03:24;3.45;;;2.60;;
13321;SDS011;6730;46.248;6.930;2022-07-15T15:05:50;4.55;;;2.35;;
13321;SDS011;6730;46.248;6.930;2022-07-15T15:08:16;3.67;;;2.78;;
13321;SDS011;6730;46.248;6.930;2022-07-15T15:10:41;2.95;;;2.75;;
13321;SDS011;6730;46.248;6.930;2022-07-15T15:13:07;3.58;;;2.90;;
13321;SDS011;6730;46.248;6.930;2022-07-15T15:15:34;2.72;;;2.53;;
13321;SDS011;6730;46.248;6.930;2022-07-15T15:17:59;2.83;;;2.60;;
13321;SDS011;6730;46.248;6.930;2022-07-15T15:20:26;3.20;;;2.92;;
13321;SDS011;6730;46.248;6.930;2022-07-15T15:22:52;4.03;;;2.50;;
13321;SDS011;6730;46.248;6.930;2022-07-15T15:25:17;3.20;;;2.90;;
13321;SDS011;6730;46.248;6.930;2022-07-15T15:28:03;4.97;;;2.88;;
13321;SDS011;6730;46.248;6.930;2022-07-15T15:30:30;3.72;;;3.15;;
13321;SDS011;6730;46.248;6.930;2022-07-15T15:32:56;3.28;;;2.78;;
13321;SDS011;6730;46.248;6.930;2022-07-15T15:35:22;3.10;;;2.80;;
13321;SDS011;6730;46.248;6.930;2022-07-15T15:37:47;3.60;;;3.00;;
13321;SDS011;6730;46.248;6.930;2022-07-15T15:40:13;3.00;;;2.75;;
13321;SDS011;6730;46.248;6.930;2022-07-15T15:42:39;5.60;;;3.10;;
13321;SDS011;6730;46.248;6.930;2022-07-15T15:45:05;3.28;;;2.67;;
13321;SDS011;6730;46.248;6.930;2022-07-15T15:47:31;3.53;;;2.78;;
13321;SDS011;6730;46.248;6.930;2022-07-15T15:49:56;4.35;;;2.55;;
13321;SDS011;6730;46.248;6.930;2022-07-15T15:52:22;3.33;;;3.03;;
13321;SDS011;6730;46.248;6.930;2022-07-15T15:54:48;3.22;;;2.92;;
13321;SDS011;6730;46.248;6.930;2022-07-15T15:57:13;2.97;;;2.67;;
13321;SDS011;6730;46.248;6.930;2022-07-15T15:59:39;3.10;;;2.80;;
13321;SDS011;6730;46.248;6.930;2022-07-15T16:02:05;5.82;;;2.78;;